New Waterford, Canada
Current Conditions -  °F | °C
As of 1:00 AM on Tuesday 23 Dec 2014 (Local Time) from CYQY Reporting Station
Overcast Overcast  
Wind Chill: 19°   Ceiling: 2000
Heat Index: 27°   Visibility: 15mi
Dew Point: 21°   Wind: 7mph
Humidity: 80%   Direction: 290°WNW
Pressure: 30.47"   Gusts: NA
Location:  46.25°N, 60.09°W
Report Text: CYQY 230500Z 29006KT 15SM OVC020 M03/M06 A3047 RMK SC8 SLP322
Loading
Personal Weather Stations






























Interactive Weather Map New forecast layout! Learn more

10-Day Weather Forecast

Advertisements
Track Severe Weather on mobile